Time;durP1;ratioP1;P1;durP2;ratioP2;P2;SDS_P1;SDS_P2;PMS_P1;PMS_P2;Temp;Humidity;BMP_temperature;BMP_pressure;BME280_temperature;BME280_humidity;BME280_pressure;Samples;Min_cycle;Max_cycle;Signal;HPM_P1;HPM_P2
2021/12/14 00:01:24;;;;;;;29.35;18.00;;;;;;;14.31;56.98;102735.38;4996044;28;20027;-63
2021/12/14 00:03:55;;;;;;;30.45;17.75;;;;;;;14.92;55.34;102738.97;5013648;28;20037;-63
2021/12/14 00:06:22;;;;;;;30.20;18.75;;;;;;;14.25;56.98;102739.28;5013357;28;20054;-62
2021/12/14 00:08:59;;;;;;;32.33;18.30;;;;;;;14.60;56.11;102753.22;5012339;28;20782;-61
2021/12/14 00:11:52;;;;;;;32.10;18.85;;;;;;;14.63;56.00;102753.47;4996439;28;20033;-64
2021/12/14 00:15:03;;;;;;;30.10;17.10;;;;;;;14.43;56.52;102753.56;4994904;28;20022;-64
2021/12/14 00:17:19;;;;;;;28.77;17.08;;;;;;;15.32;53.71;102764.63;4994711;28;20042;-63
2021/12/14 00:19:45;;;;;;;28.10;17.35;;;;;;;14.94;54.61;102769.06;5013389;28;20031;-65
2021/12/14 00:22:30;;;;;;;30.15;17.55;;;;;;;14.40;55.96;102776.22;5012905;28;20054;-65
2021/12/14 00:24:57;;;;;;;29.73;17.88;;;;;;;14.57;55.92;102757.38;4998486;28;20034;-64
2021/12/14 00:27:24;;;;;;;31.35;18.25;;;;;;;14.24;56.87;102745.91;5013256;28;20105;-65
2021/12/14 00:29:53;;;;;;;30.50;18.85;;;;;;;13.84;58.05;102755.97;4996105;28;20039;-64
2021/12/14 00:32:23;;;;;;;31.88;18.15;;;;;;;14.29;56.74;102754.16;4995125;28;20398;-63
2021/12/14 00:34:51;;;;;;;30.27;18.42;;;;;;;14.10;57.69;102755.88;5008526;28;20033;-62
2021/12/14 00:37:25;;;;;;;32.08;19.42;;;;;;;13.94;58.12;102755.91;4990662;28;20027;-65
2021/12/14 00:39:52;;;;;;;31.75;19.73;;;;;;;13.68;58.94;102755.16;5001113;28;20039;-66
2021/12/14 00:42:18;;;;;;;34.58;19.73;;;;;;;14.21;57.22;102752.00;4993359;28;20088;-64
2021/12/14 00:44:45;;;;;;;36.38;20.42;;;;;;;13.99;58.16;102743.25;4960492;28;20027;-63
2021/12/14 00:47:11;;;;;;;33.83;20.15;;;;;;;13.59;59.16;102752.13;4993242;28;20027;-64
2021/12/14 00:49:37;;;;;;;33.47;19.80;;;;;;;14.35;56.95;102732.91;4976812;28;20030;-64
2021/12/14 00:52:06;;;;;;;32.60;18.98;;;;;;;13.81;58.81;102742.72;4993082;28;20794;-64
2021/12/14 00:54:31;;;;;;;35.47;20.20;;;;;;;14.00;57.69;102740.19;4993299;28;20027;-62
2021/12/14 00:56:57;;;;;;;31.50;19.70;;;;;;;14.14;57.48;102740.41;4993373;28;20026;-64
2021/12/14 00:59:23;;;;;;;33.92;20.95;;;;;;;14.24;57.05;102732.13;4960145;28;20034;-62
2021/12/14 01:01:59;;;;;;;35.25;20.10;;;;;;;13.84;58.74;102739.41;4976103;28;20027;-63
2021/12/14 01:04:29;;;;;;;34.40;20.83;;;;;;;13.94;58.33;102730.28;4993158;28;20411;-64
2021/12/14 01:06:56;;;;;;;35.92;21.17;;;;;;;13.86;58.37;102723.41;4993235;28;20379;-66
2021/12/14 01:09:30;;;;;;;34.83;20.73;;;;;;;13.56;59.65;102714.09;4976002;28;20027;-65
2021/12/14 01:12:06;;;;;;;38.63;22.92;;;;;;;13.93;58.56;102707.38;4993089;28;20442;-62
2021/12/14 01:14:48;;;;;;;38.20;21.17;;;;;;;13.51;59.89;102711.34;4993088;28;20026;-66
2021/12/14 01:17:39;;;;;;;38.78;22.27;;;;;;;13.45;59.74;102700.63;4975527;28;20034;-62
2021/12/14 01:20:07;;;;;;;41.72;23.63;;;;;;;13.57;59.01;102706.69;4975159;28;20047;-66
2021/12/14 01:25:18;;;;;;;41.17;24.10;;;;;;;14.06;58.54;102705.16;4992374;28;20094;-63
2021/12/14 01:27:50;;;;;;;41.97;24.40;;;;;;;14.28;57.84;102702.03;4975614;28;20035;-62
2021/12/14 01:30:26;;;;;;;42.75;24.63;;;;;;;13.89;58.55;102695.28;4975296;28;20034;-65
2021/12/14 01:32:54;;;;;;;41.80;24.00;;;;;;;14.16;57.71;102705.13;4975653;28;20058;-61
2021/12/14 01:35:26;;;;;;;;;;;;;;;14.51;57.09;102700.53;4975505;28;20125;-65
2021/12/14 01:38:01;;;;;;;43.28;24.48;;;;;;;13.71;59.44;102701.38;4992709;28;19921;-63
2021/12/14 01:40:53;;;;;;;39.90;23.30;;;;;;;13.63;59.05;102691.75;4960446;28;20061;-64
2021/12/14 01:43:16;;;;;;;41.97;24.60;;;;;;;13.63;59.38;102699.22;4991902;28;20054;-62
2021/12/14 01:45:42;;;;;;;41.05;24.80;;;;;;;13.32;60.61;102710.25;4992514;28;20058;-61
2021/12/14 01:48:08;;;;;;;44.60;25.42;;;;;;;13.34;60.53;102713.56;4992075;28;20821;-63
2021/12/14 01:50:38;;;;;;;46.92;26.50;;;;;;;13.33;60.59;102721.03;4975494;28;20034;-63
2021/12/14 01:53:05;;;;;;;46.03;26.45;;;;;;;13.74;59.55;102714.63;4974717;28;20037;-66
2021/12/14 01:55:34;;;;;;;44.63;26.00;;;;;;;13.93;58.71;102701.88;4975127;28;20034;-61
2021/12/14 01:58:04;;;;;;;48.70;26.85;;;;;;;14.33;57.52;102704.75;4992338;28;20023;-64
2021/12/14 02:00:40;;;;;;;45.25;25.83;;;;;;;14.27;57.88;102703.97;4992013;28;20101;-60
2021/12/14 02:03:08;;;;;;;48.13;26.63;;;;;;;13.77;59.59;102703.03;4975366;28;20775;-64
2021/12/14 02:05:39;;;;;;;44.17;25.98;;;;;;;14.24;57.51;102710.06;4975182;28;20045;-65
2021/12/14 02:08:19;;;;;;;45.85;26.38;;;;;;;14.41;57.31;102708.84;4975046;28;20046;-62
2021/12/14 02:10:45;;;;;;;46.58;26.95;;;;;;;14.07;58.07;102713.13;4992190;28;20062;-64
2021/12/14 02:13:10;;;;;;;45.33;26.60;;;;;;;13.53;59.69;102706.38;4974831;28;20073;-63
2021/12/14 02:15:43;;;;;;;47.97;27.88;;;;;;;13.56;59.83;102699.50;4992401;28;20095;-64
2021/12/14 02:18:14;;;;;;;46.53;26.98;;;;;;;13.60;59.68;102687.66;4991663;28;20027;-64
2021/12/14 02:20:46;;;;;;;46.72;27.85;;;;;;;13.77;59.49;102697.53;4974968;28;20047;-63
2021/12/14 02:23:12;;;;;;;48.10;27.63;;;;;;;13.63;59.29;102697.28;4991934;28;20055;-64
2021/12/14 02:25:38;;;;;;;49.47;27.80;;;;;;;13.83;58.45;102701.91;4992036;28;20042;-63
2021/12/14 02:28:06;;;;;;;46.90;26.67;;;;;;;14.13;58.01;102703.75;4992204;28;20027;-62
2021/12/14 02:30:32;;;;;;;48.35;27.60;;;;;;;13.71;59.53;102690.38;4991492;28;20083;-63
2021/12/14 02:32:59;;;;;;;50.22;27.00;;;;;;;13.56;59.47;102692.06;4978709;28;20031;-66
2021/12/14 02:35:28;;;;;;;52.30;28.60;;;;;;;13.76;59.17;102690.34;4946622;28;20035;-64
2021/12/14 02:37:57;;;;;;;49.85;28.13;;;;;;;13.55;59.50;102693.19;4995894;28;20779;-63
2021/12/14 02:40:56;;;;;;;46.67;26.98;;;;;;;14.51;56.90;102700.53;4995514;28;20037;-65
2021/12/14 02:43:30;;;;;;;46.28;26.25;;;;;;;14.45;56.12;102691.44;4978289;28;20026;-63
2021/12/14 02:46:16;;;;;;;43.78;26.30;;;;;;;14.54;55.63;102675.13;4995802;28;20035;-62
2021/12/14 02:48:45;;;;;;;41.97;24.70;;;;;;;14.83;54.72;102685.47;4978676;28;20041;-62
2021/12/14 02:51:15;;;;;;;41.05;24.70;;;;;;;14.47;55.02;102688.41;5008116;28;20030;-64
2021/12/14 02:53:43;;;;;;;42.40;26.27;;;;;;;13.76;57.53;102684.84;4986714;28;20030;-62
2021/12/14 02:56:12;;;;;;;43.45;25.95;;;;;;;13.94;56.88;102675.16;4990493;28;20036;-62
2021/12/14 02:58:38;;;;;;;42.53;25.65;;;;;;;13.67;57.34;102675.50;5003548;28;20078;-62
2021/12/14 03:01:05;;;;;;;44.80;25.20;;;;;;;13.28;59.05;102663.13;5004518;28;20041;-62
2021/12/14 03:03:30;;;;;;;42.63;26.13;;;;;;;14.24;56.61;102668.66;4999014;28;20050;-65
2021/12/14 03:05:59;;;;;;;41.75;25.63;;;;;;;13.87;57.21;102672.69;4978188;28;20031;-63
2021/12/14 03:08:27;;;;;;;42.10;24.02;;;;;;;13.75;57.87;102672.19;4962171;28;20054;-63
2021/12/14 03:11:00;;;;;;;42.60;24.70;;;;;;;14.16;56.56;102677.53;4995465;28;20023;-65
2021/12/14 03:13:31;;;;;;;44.67;26.20;;;;;;;14.63;55.16;102676.19;4995154;28;20033;-63
2021/12/14 03:16:01;;;;;;;41.95;25.00;;;;;;;15.14;53.48;102690.72;4995286;28;20057;-63
2021/12/14 03:18:30;;;;;;;43.40;25.25;;;;;;;14.01;56.00;102686.69;4994767;28;20027;-64
2021/12/14 03:21:01;;;;;;;41.60;24.90;;;;;;;14.52;54.81;102700.25;4977879;28;20057;-63
2021/12/14 03:23:34;;;;;;;40.90;24.60;;;;;;;15.08;53.74;102695.50;4994650;28;20031;-65
2021/12/14 03:26:04;;;;;;;38.47;23.42;;;;;;;14.16;55.60;102702.38;4994994;28;20118;-63
2021/12/14 03:28:30;;;;;;;38.60;23.83;;;;;;;14.42;55.38;102696.72;4994775;28;20033;-65
2021/12/14 03:31:17;;;;;;;41.78;24.50;;;;;;;14.40;55.30;102693.44;4995032;28;20090;-61
2021/12/14 03:33:49;;;;;;;40.05;22.95;;;;;;;14.02;56.99;102682.84;4994760;28;20050;-63
2021/12/14 03:36:20;;;;;;;38.50;23.42;;;;;;;14.41;55.47;102686.78;4977612;28;20125;-67
2021/12/14 03:38:55;;;;;;;40.17;22.98;;;;;;;13.84;56.23;102698.06;4994915;28;20023;-67
2021/12/14 03:41:43;;;;;;;37.20;22.17;;;;;;;14.14;56.17;102707.31;4994428;28;20043;-67
2021/12/14 03:44:21;;;;;;;40.92;22.60;;;;;;;13.91;56.77;102703.28;4994672;28;20061;-65
2021/12/14 03:47:12;;;;;;;36.60;21.75;;;;;;;14.23;56.03;102705.63;4977710;28;20019;-65
2021/12/14 03:49:44;;;;;;;37.22;21.92;;;;;;;13.87;55.96;102719.56;4977012;28;20069;-67
2021/12/14 03:52:14;;;;;;;38.88;22.55;;;;;;;14.38;54.95;102712.19;4994551;28;20058;-66
2021/12/14 03:54:40;;;;;;;35.10;22.65;;;;;;;13.68;56.84;102712.97;4994241;28;20030;-64
2021/12/14 03:57:06;;;;;;;39.10;23.10;;;;;;;13.78;57.75;102711.03;4994399;28;20031;-64
2021/12/14 03:59:32;;;;;;;38.40;23.05;;;;;;;13.75;57.56;102710.75;4976925;28;20031;-62
2021/12/14 04:02:01;;;;;;;38.25;22.58;;;;;;;13.30;58.32;102699.50;4993951;28;20042;-64
2021/12/14 04:04:36;;;;;;;37.70;22.42;;;;;;;13.81;56.75;102689.50;4976748;28;20038;-64
2021/12/14 04:07:05;;;;;;;36.25;21.58;;;;;;;13.41;58.62;102686.59;4977362;28;20082;-64
2021/12/14 04:09:34;;;;;;;36.28;22.27;;;;;;;13.66;57.69;102691.19;4976619;28;20026;-63
2021/12/14 04:12:00;;;;;;;35.58;20.92;;;;;;;13.83;56.34;102690.88;4994171;28;20082;-66
2021/12/14 04:14:29;;;;;;;35.05;20.88;;;;;;;13.85;56.83;102694.19;4993719;28;20030;-66
2021/12/14 04:16:56;;;;;;;35.38;21.10;;;;;;;13.30;58.52;102694.00;4993961;28;20030;-65
2021/12/14 04:19:24;;;;;;;36.83;21.45;;;;;;;13.41;58.45;102694.84;4994138;28;20034;-65
2021/12/14 04:21:54;;;;;;;37.03;21.35;;;;;;;14.19;56.22;102698.19;4977357;28;20062;-63
2021/12/14 04:24:26;;;;;;;33.60;20.77;;;;;;;14.45;54.49;102702.50;4994009;28;20031;-66
2021/12/14 04:26:54;;;;;;;32.55;20.75;;;;;;;13.75;56.76;102703.31;4993741;28;20034;-64
2021/12/14 04:29:20;;;;;;;;;;;;;;;14.43;55.34;102710.22;4994344;28;20027;-65
2021/12/14 04:31:47;;;;;;;30.90;18.60;;;;;;;13.79;56.48;102706.31;4976416;28;19984;-66
2021/12/14 04:34:14;;;;;;;34.00;19.00;;;;;;;14.13;55.77;102700.97;4960865;28;20060;-64
2021/12/14 04:36:43;;;;;;;33.00;18.88;;;;;;;14.13;54.99;102700.16;4960427;28;20082;-65
2021/12/14 04:53:03;;;;;;;27.52;17.15;;;;;;;13.29;58.13;102680.50;4993387;28;20065;-64
2021/12/14 04:55:29;;;;;;;26.80;17.15;;;;;;;13.47;57.66;102682.69;4992617;28;20034;-64
2021/12/14 04:57:55;;;;;;;27.20;17.27;;;;;;;13.76;56.63;102682.06;4993171;28;20027;-65
2021/12/14 05:00:38;;;;;;;28.90;16.83;;;;;;;13.58;57.70;102681.59;4993253;28;20061;-63
2021/12/14 05:03:13;;;;;;;27.08;16.50;;;;;;;13.70;57.04;102673.00;4993394;28;20377;-65
2021/12/14 05:05:47;;;;;;;26.20;16.25;;;;;;;13.81;56.24;102673.81;4992736;28;20030;-64
2021/12/14 05:10:46;;;;;;;29.75;17.63;;;;;;;14.04;55.76;102668.75;4976440;28;20034;-66
2021/12/14 05:13:12;;;;;;;26.52;15.90;;;;;;;13.55;56.87;102670.28;4993157;28;20039;-67
2021/12/14 05:15:39;;;;;;;28.77;16.58;;;;;;;13.13;57.79;102672.25;4992513;28;20090;-64
2021/12/14 05:18:13;;;;;;;28.38;17.63;;;;;;;13.95;56.47;102671.25;4992741;28;20090;-64
2021/12/14 05:20:46;;;;;;;28.73;16.20;;;;;;;14.06;56.35;102672.91;4974951;28;20058;-66
2021/12/14 05:23:23;;;;;;;28.20;16.40;;;;;;;13.49;56.94;102663.97;4975666;28;20035;-65
2021/12/14 05:25:50;;;;;;;28.70;16.80;;;;;;;13.31;57.14;102672.78;4992414;28;20034;-64
2021/12/14 05:28:18;;;;;;;29.40;17.50;;;;;;;13.41;58.01;102670.88;4992887;28;20105;-68
2021/12/14 05:30:46;;;;;;;27.98;15.90;;;;;;;13.56;57.47;102678.28;4960010;28;20030;-64
2021/12/14 05:33:25;;;;;;;26.52;15.80;;;;;;;13.33;57.98;102676.09;4992628;28;20087;-61
2021/12/14 05:35:54;;;;;;;27.35;15.95;;;;;;;13.67;56.84;102681.84;4975145;28;20031;-66
2021/12/14 05:38:27;;;;;;;29.13;16.75;;;;;;;13.41;57.38;102673.63;4975557;28;20034;-66
2021/12/14 05:43:23;;;;;;;27.75;15.80;;;;;;;13.51;57.35;102682.97;4992648;28;20046;-66
2021/12/14 05:45:53;;;;;;;27.52;15.93;;;;;;;13.72;57.02;102683.75;4975035;28;20061;-66
2021/12/14 05:48:28;;;;;;;29.83;16.33;;;;;;;13.90;55.69;102687.84;4992418;28;20046;-63
2021/12/14 05:51:00;;;;;;;30.00;16.23;;;;;;;13.52;57.46;102690.97;4992118;28;20106;-66
2021/12/14 05:53:29;;;;;;;28.30;16.55;;;;;;;13.59;57.32;102685.97;4975219;28;20057;-63
2021/12/14 05:55:56;;;;;;;27.73;16.42;;;;;;;14.15;55.62;102695.19;4974899;28;20031;-66
2021/12/14 05:58:24;;;;;;;28.60;16.70;;;;;;;14.51;54.75;102695.84;4992412;28;20038;-64
2021/12/14 06:01:03;;;;;;;26.70;16.02;;;;;;;14.63;53.85;102703.78;4974699;28;20078;-63
2021/12/14 06:03:32;;;;;;;29.45;16.52;;;;;;;13.87;56.06;102700.25;4992320;28;20074;-65
2021/12/14 06:06:00;;;;;;;28.30;16.27;;;;;;;13.66;56.91;102706.91;4991874;28;20034;-63
2021/12/14 06:08:32;;;;;;;29.27;16.58;;;;;;;13.57;56.92;102709.44;4975148;28;20097;-64
2021/12/14 06:10:59;;;;;;;28.70;16.13;;;;;;;13.82;56.08;102704.94;4991895;28;20037;-65
2021/12/14 06:13:44;;;;;;;30.80;16.92;;;;;;;13.73;56.71;102701.97;4992235;28;20058;-64
2021/12/14 06:16:25;;;;;;;29.05;16.40;;;;;;;13.46;57.71;102694.84;4974897;28;20038;-62
2021/12/14 06:18:51;;;;;;;29.17;17.17;;;;;;;12.99;58.68;102706.94;4991898;28;20030;-66
2021/12/14 06:21:27;;;;;;;30.75;16.95;;;;;;;13.71;56.86;102704.16;4991994;28;20070;-63
2021/12/14 06:24:01;;;;;;;28.10;16.92;;;;;;;13.86;56.44;102706.88;4991891;28;20031;-66
2021/12/14 06:26:54;;;;;;;27.70;15.63;;;;;;;13.79;56.36;102711.84;4992016;28;20030;-64
2021/12/14 06:29:34;;;;;;;29.23;16.63;;;;;;;13.56;57.94;102713.28;4988796;28;20063;-66
2021/12/14 06:32:09;;;;;;;31.30;17.40;;;;;;;13.68;56.67;102712.97;4991664;28;20091;-63
2021/12/14 06:34:38;;;;;;;31.85;17.05;;;;;;;13.45;58.18;102723.47;4991812;28;20032;-66
2021/12/14 06:37:20;;;;;;;32.60;17.58;;;;;;;13.42;58.21;102718.53;4991360;28;20484;-63
2021/12/14 06:40:02;;;;;;;28.92;16.42;;;;;;;13.69;56.63;102714.63;4974205;28;20074;-63
2021/12/14 06:42:29;;;;;;;33.33;17.23;;;;;;;13.35;58.32;102720.75;4974856;28;20026;-65
2021/12/14 06:45:07;;;;;;;30.30;16.65;;;;;;;14.31;55.57;102715.25;4991444;28;20026;-66
2021/12/14 06:47:33;;;;;;;32.10;17.60;;;;;;;12.75;59.89;102721.19;4992043;28;20030;-65
2021/12/14 06:50:01;;;;;;;31.60;17.80;;;;;;;12.94;59.94;102726.19;4991423;28;20034;-63
2021/12/14 06:52:27;;;;;;;34.10;17.88;;;;;;;13.50;57.44;102737.25;4991487;28;20058;-60
2021/12/14 06:54:52;;;;;;;32.42;17.52;;;;;;;13.57;57.06;102737.00;4991236;28;20069;-62
2021/12/14 06:57:19;;;;;;;32.88;17.83;;;;;;;13.72;56.18;102741.63;4991814;28;20030;-60
2021/12/14 06:59:47;;;;;;;33.88;17.95;;;;;;;13.83;56.65;102747.97;4991515;28;20062;-66
2021/12/14 07:02:13;;;;;;;34.42;18.63;;;;;;;13.60;57.57;102745.53;4974710;28;20050;-66
2021/12/14 07:04:48;;;;;;;35.85;19.13;;;;;;;13.51;58.16;102741.66;4974510;28;20026;-64
2021/12/14 07:07:14;;;;;;;34.17;19.05;;;;;;;13.23;58.98;102743.00;4991683;28;20042;-65
2021/12/14 07:09:42;;;;;;;33.55;18.90;;;;;;;13.43;58.43;102737.53;4974726;28;20023;-66
2021/12/14 07:12:21;;;;;;;33.60;18.65;;;;;;;13.28;59.02;102743.00;4974223;28;20023;-66
2021/12/14 07:14:50;;;;;;;34.90;19.00;;;;;;;13.59;57.96;102735.59;4974158;28;20026;-65
2021/12/14 07:17:27;;;;;;;35.15;19.05;;;;;;;13.95;57.13;102743.81;4992465;28;20022;-66
2021/12/14 07:19:55;;;;;;;35.67;18.92;;;;;;;13.58;58.31;102739.47;4977609;28;20031;-66
2021/12/14 07:22:33;;;;;;;39.05;19.95;;;;;;;12.88;60.28;102733.63;4977754;28;20115;-66
2021/12/14 07:25:13;;;;;;;37.70;19.63;;;;;;;13.42;58.98;102744.13;4994745;28;20027;-66
2021/12/14 07:27:41;;;;;;;35.55;18.73;;;;;;;13.14;59.64;102742.75;4995038;28;20059;-65
2021/12/14 07:30:15;;;;;;;;;;;;;;;14.04;57.16;102745.97;4994953;28;20038;-63
2021/12/14 07:32:56;;;;;;;36.63;19.77;;;;;;;13.55;58.52;102752.94;4994963;28;20705;-66
2021/12/14 07:35:33;;;;;;;40.03;20.38;;;;;;;13.36;58.83;102758.19;4994854;28;20037;-62
2021/12/14 07:38:05;;;;;;;39.03;20.25;;;;;;;13.52;58.89;102757.09;4994161;28;20054;-65
2021/12/14 07:40:40;;;;;;;38.08;19.33;;;;;;;13.20;59.81;102768.34;4977532;28;20031;-63
2021/12/14 07:43:29;;;;;;;39.00;20.20;;;;;;;13.93;57.83;102767.22;4977176;28;20043;-64
2021/12/14 07:45:56;;;;;;;36.13;19.48;;;;;;;13.99;57.43;102765.31;4994033;28;20057;-66
2021/12/14 07:48:36;;;;;;;;;;;;;;;14.09;57.36;102770.78;4965137;28;20027;-62
2021/12/14 07:51:02;;;;;;;39.17;19.60;;;;;;;13.76;58.41;102773.03;5006999;28;19909;-64
2021/12/14 07:53:40;;;;;;;39.00;20.50;;;;;;;14.18;56.81;102769.09;5004001;28;20019;-63
2021/12/14 07:56:06;;;;;;;39.00;19.60;;;;;;;14.40;56.23;102773.44;4987575;28;20022;-63
2021/12/14 07:58:40;;;;;;;39.90;19.63;;;;;;;14.46;56.37;102775.06;4990704;28;20031;-67
2021/12/14 08:01:06;;;;;;;38.97;19.35;;;;;;;14.56;56.24;102780.53;5013563;28;20292;-65
2021/12/14 08:03:33;;;;;;;39.80;19.92;;;;;;;14.45;56.35;102789.97;5014031;28;20034;-64
2021/12/14 08:06:04;;;;;;;36.78;19.67;;;;;;;14.31;56.81;102778.72;5013256;28;20026;-66
2021/12/14 08:08:54;;;;;;;40.20;19.73;;;;;;;14.09;57.69;102781.81;4996360;28;20034;-61
2021/12/14 08:14:22;;;;;;;40.03;19.40;;;;;;;14.23;57.66;102791.13;5013587;28;20360;-67
2021/12/14 08:16:58;;;;;;;40.03;20.42;;;;;;;13.78;58.97;102790.97;5013905;28;20026;-67
2021/12/14 08:19:40;;;;;;;44.50;20.98;;;;;;;13.76;60.07;102795.94;5013882;28;20023;-65
2021/12/14 08:22:27;;;;;;;43.28;20.42;;;;;;;13.72;60.45;102800.34;4995947;28;20054;-67
2021/12/14 08:24:53;;;;;;;44.83;21.90;;;;;;;13.57;60.53;102808.63;5013997;28;20023;-64
2021/12/14 08:27:24;;;;;;;49.85;22.25;;;;;;;13.41;61.17;102799.53;5013334;28;20056;-66
2021/12/14 08:29:58;;;;;;;49.20;21.52;;;;;;;14.93;57.10;102798.59;5013083;28;20430;-70
2021/12/14 08:32:29;;;;;;;43.97;21.92;;;;;;;13.89;59.60;102804.75;4996858;28;20037;-67
2021/12/14 08:34:56;;;;;;;45.28;22.98;;;;;;;13.60;61.16;102803.38;5013527;28;20026;-65
2021/12/14 08:37:37;;;;;;;46.97;23.52;;;;;;;14.13;59.66;102805.78;4996174;28;20037;-65
2021/12/14 08:40:12;;;;;;;48.03;23.00;;;;;;;13.72;60.32;102818.81;4995307;28;20030;-64
2021/12/14 08:42:53;;;;;;;43.60;21.98;;;;;;;13.92;59.88;102816.03;5013363;28;20026;-65
2021/12/14 08:45:26;;;;;;;48.75;23.52;;;;;;;14.09;60.11;102823.19;5009310;28;20026;-66
2021/12/14 08:48:05;;;;;;;49.55;23.83;;;;;;;14.14;59.73;102829.53;4993203;28;20069;-66
2021/12/14 08:50:36;;;;;;;53.13;24.02;;;;;;;13.47;61.94;102825.97;4976345;28;20027;-64
2021/12/14 08:53:01;;;;;;;49.70;22.45;;;;;;;14.38;59.24;102822.53;4991741;28;20053;-65
2021/12/14 08:55:32;;;;;;;49.63;23.50;;;;;;;14.18;59.95;102824.25;4992985;28;20031;-63
2021/12/14 08:57:58;;;;;;;54.13;23.48;;;;;;;13.88;60.52;102823.19;4992991;28;20058;-63
2021/12/14 09:00:30;;;;;;;49.40;23.77;;;;;;;14.13;60.40;102821.53;4992777;28;20045;-66
2021/12/14 09:03:00;;;;;;;50.85;24.98;;;;;;;13.99;60.41;102823.22;4993157;28;20031;-66
2021/12/14 09:05:38;;;;;;;55.35;24.90;;;;;;;14.15;60.45;102813.78;4975383;28;20026;-65
2021/12/14 09:08:04;;;;;;;50.55;24.88;;;;;;;14.37;59.73;102815.41;4992799;28;20035;-65
2021/12/14 09:10:32;;;;;;;53.60;25.27;;;;;;;13.72;61.13;102808.59;4991783;28;20042;-67
2021/12/14 09:13:04;;;;;;;54.40;25.42;;;;;;;14.11;60.34;102804.41;4993021;28;20026;-63
2021/12/14 09:15:39;;;;;;;53.83;25.40;;;;;;;13.95;61.07;102809.97;5016896;28;20038;-63
2021/12/14 09:18:05;;;;;;;55.22;24.92;;;;;;;14.88;58.22;102807.72;5015059;28;20026;-62
2021/12/14 09:20:36;;;;;;;51.28;24.17;;;;;;;15.08;57.37;102814.25;5026472;28;20030;-66
2021/12/14 09:23:06;;;;;;;52.10;24.17;;;;;;;14.50;59.37;102815.59;5022876;28;20491;-64
2021/12/14 09:25:32;;;;;;;53.45;25.52;;;;;;;14.34;59.21;102806.56;5025320;28;20045;-66
2021/12/14 09:27:59;;;;;;;50.60;23.33;;;;;;;14.71;58.34;102814.72;5019956;28;20030;-64
2021/12/14 09:30:28;;;;;;;49.25;24.73;;;;;;;14.22;60.10;102819.00;5016756;28;20346;-67
2021/12/14 09:32:55;;;;;;;48.28;24.08;;;;;;;14.43;59.27;102828.88;5018889;28;20030;-67
2021/12/14 09:35:26;;;;;;;50.60;24.90;;;;;;;14.42;59.98;102829.97;5006801;28;20030;-66
2021/12/14 09:37:54;;;;;;;53.50;25.20;;;;;;;14.64;58.99;102832.44;5019738;28;20265;-63
2021/12/14 09:40:29;;;;;;;52.40;25.48;;;;;;;14.54;59.45;102818.66;5026224;28;20026;-64
2021/12/14 09:42:55;;;;;;;53.53;24.98;;;;;;;13.83;61.63;102825.97;5024682;28;20026;-64
2021/12/14 09:45:29;;;;;;;56.97;27.38;;;;;;;14.49;59.65;102824.16;5014295;28;20164;-65
2021/12/14 09:47:55;;;;;;;50.47;24.85;;;;;;;14.47;59.29;102820.88;5005548;28;20398;-65
2021/12/14 09:50:26;;;;;;;49.92;24.60;;;;;;;14.29;59.87;102827.84;5003435;28;20049;-66
2021/12/14 09:52:53;;;;;;;47.72;24.48;;;;;;;14.24;60.09;102817.63;5022790;28;20034;-66
2021/12/14 09:55:24;;;;;;;57.10;25.10;;;;;;;14.25;60.41;102823.97;4975215;28;20033;-63
2021/12/14 09:57:53;;;;;;;55.60;26.50;;;;;;;14.01;61.04;102819.03;4993973;28;20026;-65
2021/12/14 10:00:36;;;;;;;55.55;26.33;;;;;;;14.41;60.75;102817.31;5018956;28;20087;-66
2021/12/14 10:03:04;;;;;;;58.17;26.50;;;;;;;13.57;62.68;102814.97;4997331;28;20060;-64
2021/12/14 10:05:35;;;;;;;53.75;25.25;;;;;;;14.35;60.21;102818.44;5018911;28;20030;-64
2021/12/14 10:08:13;;;;;;;52.63;25.83;;;;;;;14.44;60.17;102810.38;5022471;28;20029;-66
2021/12/14 10:10:40;;;;;;;54.80;26.20;;;;;;;14.33;60.14;102813.19;5022631;28;20026;-65
2021/12/14 10:13:05;;;;;;;54.60;25.48;;;;;;;14.97;58.13;102812.66;5002964;28;20057;-62
2021/12/14 10:15:37;;;;;;;47.63;25.90;;;;;;;14.39;59.84;102813.16;5014140;28;20027;-64
2021/12/14 10:18:18;;;;;;;52.53;25.73;;;;;;;14.96;58.54;102816.53;5010193;28;20062;-65
2021/12/14 10:20:50;;;;;;;51.45;25.70;;;;;;;15.34;57.55;102823.19;4998203;28;20081;-63
2021/12/14 10:23:16;;;;;;;56.97;25.55;;;;;;;14.32;60.15;102817.06;5018547;28;20033;-63
2021/12/14 10:25:42;;;;;;;55.95;26.33;;;;;;;13.82;61.20;102818.78;5016063;28;20030;-65
2021/12/14 10:28:09;;;;;;;58.80;26.95;;;;;;;14.73;59.78;102818.03;4978082;28;20081;-65
2021/12/14 10:30:43;;;;;;;43.80;24.15;;;;;;;14.65;59.77;102822.19;5011198;28;20026;-67
2021/12/14 10:33:09;;;;;;;48.83;24.55;;;;;;;14.52;60.10;102820.84;4994260;28;20026;-66
2021/12/14 10:35:44;;;;;;;50.90;24.35;;;;;;;14.80;59.80;102824.91;4993854;28;20025;-63
2021/12/14 10:38:25;;;;;;;50.22;25.52;;;;;;;14.92;59.11;102824.56;4993938;28;20212;-63
2021/12/14 10:43:55;;;;;;;46.45;24.00;;;;;;;15.17;58.90;102831.03;5011600;28;20093;-65
2021/12/14 10:46:33;;;;;;;46.45;23.98;;;;;;;15.60;57.64;102826.59;4993792;28;20053;-65
2021/12/14 10:48:59;;;;;;;49.72;23.73;;;;;;;15.02;59.19;102829.22;4993926;28;20050;-64
2021/12/14 10:51:29;;;;;;;44.88;23.17;;;;;;;14.61;60.86;102824.69;5010967;28;20035;-63
2021/12/14 10:53:57;;;;;;;54.67;23.95;;;;;;;15.47;58.36;102818.94;5014210;28;20428;-63
2021/12/14 10:56:35;;;;;;;47.17;24.27;;;;;;;14.54;61.09;102821.41;5005125;28;20041;-64
2021/12/14 10:59:04;;;;;;;46.83;22.95;;;;;;;14.97;60.20;102818.16;5013493;28;20046;-64
2021/12/14 11:01:33;;;;;;;50.33;23.65;;;;;;;15.15;59.34;102819.47;5019341;28;20036;-64
2021/12/14 11:04:05;;;;;;;45.20;23.17;;;;;;;14.99;60.16;102811.25;4991889;28;20037;-66
2021/12/14 11:06:33;;;;;;;45.40;24.42;;;;;;;15.14;59.73;102812.28;5022026;28;20053;-64
2021/12/14 11:11:42;;;;;;;52.22;24.92;;;;;;;14.50;62.21;102809.25;5022336;28;20030;-64
2021/12/14 11:14:11;;;;;;;47.70;23.55;;;;;;;15.68;58.86;102811.31;5034526;28;20033;-62
2021/12/14 11:19:38;;;;;;;46.25;23.20;;;;;;;15.05;60.84;102815.66;5033923;28;20090;-64
2021/12/14 11:22:28;;;;;;;51.08;23.73;;;;;;;15.02;60.95;102810.69;5016526;28;20053;-64
2021/12/14 11:25:10;;;;;;;47.83;23.92;;;;;;;14.86;61.44;102811.91;5023165;28;20022;-61
2021/12/14 11:27:43;;;;;;;55.10;25.52;;;;;;;15.84;58.30;102811.19;5001993;28;20025;-64
2021/12/14 11:30:16;;;;;;;47.67;23.73;;;;;;;15.61;59.31;102821.88;5004683;28;20022;-65
2021/12/14 11:32:43;;;;;;;51.65;24.35;;;;;;;15.36;59.76;102809.91;5004974;28;20049;-66
2021/12/14 11:35:41;;;;;;;47.08;24.02;;;;;;;14.90;61.06;102807.44;5028117;28;20038;-66
2021/12/14 11:38:24;;;;;;;50.85;23.27;;;;;;;15.61;59.20;102805.28;4984329;28;20058;-66
2021/12/14 11:40:49;;;;;;;49.90;25.15;;;;;;;15.08;60.59;102807.91;5024498;28;20072;-63
2021/12/14 11:43:19;;;;;;;53.83;25.48;;;;;;;14.73;61.86;102809.75;5024176;28;20030;-61
2021/12/14 11:45:48;;;;;;;50.85;24.27;;;;;;;15.07;60.88;102811.78;5017231;28;20029;-67
2021/12/14 11:48:15;;;;;;;48.20;24.60;;;;;;;15.12;60.36;102814.50;5007777;28;20022;-65
2021/12/14 11:50:45;;;;;;;50.65;23.63;;;;;;;15.05;60.79;102810.13;5002393;28;20094;-67
2021/12/14 11:53:14;;;;;;;51.25;25.77;;;;;;;15.29;60.23;102808.56;5001709;28;20015;-64
2021/12/14 11:55:44;;;;;;;49.65;23.85;;;;;;;14.96;61.07;102806.31;5023602;28;20034;-64
2021/12/14 11:58:26;;;;;;;51.78;23.98;;;;;;;15.51;59.77;102805.38;5027637;28;20031;-64
2021/12/14 12:01:23;;;;;;;45.47;22.95;;;;;;;15.37;60.10;102808.81;4984198;28;20022;-64
2021/12/14 12:04:05;;;;;;;47.00;24.35;;;;;;;15.51;59.36;102802.59;5013996;28;20029;-64